Time;durP1;ratioP1;P1;durP2;ratioP2;P2;SDS_P1;SDS_P2;PMS_P1;PMS_P2;Temp;Humidity;BMP_temperature;BMP_pressure;BME280_temperature;BME280_humidity;BME280_pressure;Samples;Min_cycle;Max_cycle;Signal;HPM_P1;HPM_P2
2024/01/07 00:00:57;;;;;;;15.65;9.73;;;3.00;99.90;;;;;;5018943;28;20054;-66
2024/01/07 00:03:29;;;;;;;14.20;9.10;;;3.00;99.90;;;;;;5023465;28;20056;-66
2024/01/07 00:06:01;;;;;;;13.02;9.02;;;3.00;99.90;;;;;;5016296;28;20038;-66
2024/01/07 00:08:33;;;;;;;14.77;10.40;;;3.00;99.90;;;;;;5019478;28;20480;-66
2024/01/07 00:11:05;;;;;;;16.98;10.75;;;3.00;99.90;;;;;;5011193;28;20048;-66
2024/01/07 00:13:37;;;;;;;17.38;9.90;;;3.00;99.90;;;;;;5010785;28;20057;-66
2024/01/07 00:16:09;;;;;;;15.82;10.15;;;3.00;99.90;;;;;;5017964;28;20038;-65
2024/01/07 00:18:40;;;;;;;14.93;10.10;;;3.00;99.90;;;;;;5021003;28;20049;-65
2024/01/07 00:21:12;;;;;;;16.80;10.15;;;3.00;99.90;;;;;;5003278;28;20046;-66
2024/01/07 00:23:44;;;;;;;14.00;9.90;;;2.90;99.90;;;;;;5018609;28;20057;-66
2024/01/07 00:26:16;;;;;;;15.65;10.02;;;2.90;99.90;;;;;;5018134;28;20034;-66
2024/01/07 00:28:47;;;;;;;17.65;10.95;;;3.00;99.90;;;;;;5021000;28;20041;-66
2024/01/07 00:31:19;;;;;;;15.43;10.40;;;3.00;99.90;;;;;;5019279;28;20124;-65
2024/01/07 00:33:51;;;;;;;17.17;9.85;;;3.00;99.90;;;;;;5017781;28;20049;-66
2024/01/07 00:36:23;;;;;;;15.88;11.23;;;3.00;99.90;;;;;;5022642;28;20045;-66
2024/01/07 00:38:54;;;;;;;16.52;10.38;;;3.00;99.90;;;;;;5025739;28;20062;-66
2024/01/07 00:41:26;;;;;;;21.17;11.13;;;3.00;99.90;;;;;;5021739;28;20053;-66
2024/01/07 00:43:58;;;;;;;19.95;11.23;;;3.00;99.90;;;;;;5021258;28;20073;-66
2024/01/07 00:46:30;;;;;;;18.42;10.68;;;3.00;99.90;;;;;;5036799;28;20147;-66
2024/01/07 00:49:02;;;;;;;19.77;11.65;;;2.90;99.90;;;;;;5023981;28;20049;-66
2024/01/07 00:51:33;;;;;;;17.33;11.70;;;3.00;99.90;;;;;;5025226;28;20125;-66
2024/01/07 00:54:05;;;;;;;18.52;11.25;;;3.00;99.90;;;;;;5026766;28;20052;-66
2024/01/07 00:56:37;;;;;;;21.02;11.88;;;3.00;99.90;;;;;;5025791;28;20045;-66
2024/01/07 00:59:09;;;;;;;18.88;12.02;;;3.00;99.90;;;;;;5021499;28;20514;-66
2024/01/07 01:01:36;;;;;;;19.38;11.90;;;3.00;99.90;;;;;;5008628;28;20053;-67
2024/01/07 01:04:07;;;;;;;23.45;12.15;;;3.00;99.90;;;;;;5034238;28;20052;-66
2024/01/07 01:06:40;;;;;;;19.73;13.50;;;3.00;99.90;;;;;;5000643;28;20045;-66
2024/01/07 01:09:12;;;;;;;20.08;12.95;;;3.00;99.90;;;;;;5021686;28;20502;-66
2024/01/07 01:11:44;;;;;;;21.80;11.88;;;3.00;99.90;;;;;;5024519;28;20037;-66
2024/01/07 01:14:16;;;;;;;19.77;12.35;;;3.00;99.90;;;;;;5023779;28;20129;-66
2024/01/07 01:16:48;;;;;;;22.90;12.68;;;3.00;99.90;;;;;;5023812;28;20076;-65
2024/01/07 01:19:24;;;;;;;17.15;11.52;;;3.10;99.90;;;;;;5021621;28;20042;-66
2024/01/07 01:21:56;;;;;;;19.10;11.90;;;3.10;99.90;;;;;;5041300;28;20513;-66
2024/01/07 01:24:29;;;;;;;25.48;14.13;;;3.10;99.90;;;;;;5027387;28;20099;-66
2024/01/07 01:27:01;;;;;;;22.35;13.15;;;3.00;99.90;;;;;;5019984;28;20033;-66
2024/01/07 01:29:28;;;;;;;18.70;12.13;;;3.10;99.90;;;;;;5022968;28;20133;-66
2024/01/07 01:31:59;;;;;;;18.13;11.95;;;3.10;99.90;;;;;;5020320;28;20104;-66
2024/01/07 01:34:31;;;;;;;19.67;12.18;;;3.10;99.90;;;;;;5015055;28;20061;-66
2024/01/07 01:37:03;;;;;;;20.52;11.98;;;3.10;99.90;;;;;;4997633;28;20042;-65
2024/01/07 01:39:36;;;;;;;17.45;11.60;;;3.10;99.90;;;;;;5020133;28;20046;-66
2024/01/07 01:42:08;;;;;;;17.58;11.18;;;3.10;99.90;;;;;;5030842;28;20041;-66
2024/01/07 01:44:41;;;;;;;20.10;11.90;;;3.10;99.90;;;;;;5011750;28;20053;-66
2024/01/07 01:47:13;;;;;;;19.65;11.57;;;3.10;99.90;;;;;;5020910;28;20716;-66
2024/01/07 01:49:46;;;;;;;16.52;11.27;;;3.10;99.90;;;;;;5028124;28;20053;-66
2024/01/07 01:52:13;;;;;;;19.00;12.13;;;3.20;99.90;;;;;;5043735;28;20065;-66
2024/01/07 01:54:45;;;;;;;18.00;10.97;;;3.20;99.90;;;;;;5025354;28;20411;-65
2024/01/07 01:57:16;;;;;;;18.25;11.25;;;3.20;99.90;;;;;;5030078;28;20296;-66
2024/01/07 01:59:48;;;;;;;19.42;11.50;;;3.10;99.90;;;;;;5016117;28;20092;-66
2024/01/07 02:02:21;;;;;;;17.75;11.32;;;3.10;99.90;;;;;;5018226;28;20502;-66
2024/01/07 02:04:53;;;;;;;21.52;12.18;;;3.10;99.90;;;;;;5021929;28;20422;-65
2024/01/07 02:07:26;;;;;;;19.38;11.50;;;3.10;99.90;;;;;;5021430;28;20076;-66
2024/01/07 02:09:59;;;;;;;19.17;11.30;;;3.10;99.90;;;;;;5021622;28;20042;-66
2024/01/07 02:12:30;;;;;;;19.15;11.35;;;3.10;99.90;;;;;;5021486;28;20046;-66
2024/01/07 02:15:03;;;;;;;16.38;10.73;;;3.10;99.90;;;;;;5020697;28;20077;-66
2024/01/07 02:17:35;;;;;;;17.83;10.88;;;3.10;99.90;;;;;;5032931;28;20358;-66
2024/01/07 02:20:07;;;;;;;18.33;10.80;;;3.10;99.90;;;;;;5017636;28;20045;-66
2024/01/07 02:22:38;;;;;;;15.35;10.50;;;3.10;99.90;;;;;;5017508;28;20069;-66
2024/01/07 02:25:10;;;;;;;15.25;10.73;;;3.00;99.90;;;;;;5018502;28;20048;-66
2024/01/07 02:27:42;;;;;;;18.30;10.77;;;3.00;99.90;;;;;;5011274;28;20037;-66
2024/01/07 02:30:14;;;;;;;16.95;10.85;;;3.00;99.90;;;;;;5021710;28;20498;-67
2024/01/07 02:32:46;;;;;;;20.50;12.43;;;3.00;99.90;;;;;;5026564;28;20061;-66
2024/01/07 02:35:18;;;;;;;15.07;10.63;;;3.10;99.90;;;;;;5019837;28;20052;-66
2024/01/07 02:37:49;;;;;;;15.75;10.35;;;3.10;99.90;;;;;;5037455;28;20523;-66
2024/01/07 02:40:21;;;;;;;16.17;10.48;;;3.10;99.90;;;;;;5019198;28;20416;-66
2024/01/07 02:42:53;;;;;;;14.45;9.48;;;3.10;99.90;;;;;;5017397;28;20077;-66
2024/01/07 02:45:25;;;;;;;14.77;9.63;;;3.10;99.90;;;;;;5022039;28;20055;-66
2024/01/07 02:47:57;;;;;;;11.68;8.35;;;3.00;99.90;;;;;;5014406;28;20111;-66
2024/01/07 02:50:29;;;;;;;14.18;8.70;;;3.10;99.90;;;;;;5011150;28;20034;-66
2024/01/07 02:53:00;;;;;;;10.82;8.00;;;3.10;99.90;;;;;;5019452;28;20056;-66
2024/01/07 02:55:27;;;;;;;11.90;7.38;;;3.00;99.90;;;;;;5015882;28;20140;-66
2024/01/07 02:57:59;;;;;;;9.18;6.53;;;3.00;99.90;;;;;;5018016;28;20130;-66
2024/01/07 03:00:31;;;;;;;10.02;6.55;;;2.90;99.90;;;;;;5017772;28;20045;-66
2024/01/07 03:03:02;;;;;;;12.40;7.55;;;2.90;99.90;;;;;;5020138;28;20046;-66
2024/01/07 03:05:34;;;;;;;11.30;7.40;;;2.90;99.90;;;;;;5021167;28;20045;-66
2024/01/07 03:08:07;;;;;;;12.27;7.88;;;2.80;99.90;;;;;;5022055;28;20311;-65
2024/01/07 03:10:39;;;;;;;11.07;7.27;;;2.80;99.90;;;;;;5016501;28;20510;-66
2024/01/07 03:13:12;;;;;;;11.23;7.82;;;2.80;99.90;;;;;;5014371;28;20029;-66
2024/01/07 03:15:44;;;;;;;10.53;7.00;;;2.70;99.90;;;;;;5021482;28;20418;-65
2024/01/07 03:18:15;;;;;;;10.25;6.47;;;2.70;99.90;;;;;;5015742;28;20494;-66
2024/01/07 03:20:47;;;;;;;10.93;7.20;;;2.80;99.90;;;;;;5011765;28;20129;-66
2024/01/07 03:23:14;;;;;;;13.38;8.88;;;2.80;99.90;;;;;;5013725;28;20060;-66
2024/01/07 03:25:46;;;;;;;11.82;7.88;;;2.70;99.90;;;;;;5015340;28;20048;-66
2024/01/07 03:28:17;;;;;;;10.60;7.47;;;2.70;99.90;;;;;;5022130;28;20044;-66
2024/01/07 03:30:49;;;;;;;10.25;7.45;;;2.70;99.90;;;;;;5019779;28;20383;-66
2024/01/07 03:33:21;;;;;;;13.25;8.30;;;2.70;99.90;;;;;;5019320;28;20038;-66
2024/01/07 03:35:53;;;;;;;10.90;7.57;;;2.70;99.90;;;;;;5026871;28;20033;-66
2024/01/07 03:38:25;;;;;;;11.52;8.23;;;2.70;99.90;;;;;;5022268;28;20076;-66
2024/01/07 03:40:56;;;;;;;10.10;7.70;;;2.70;99.90;;;;;;5013873;28;20403;-66
2024/01/07 03:43:29;;;;;;;11.45;8.00;;;2.70;99.90;;;;;;5015068;28;20105;-66
2024/01/07 03:46:00;;;;;;;12.05;7.88;;;2.70;99.90;;;;;;5021712;28;20502;-66
2024/01/07 03:48:32;;;;;;;12.65;8.93;;;2.70;99.90;;;;;;4998328;28;20041;-66
2024/01/07 03:51:04;;;;;;;12.70;8.30;;;2.70;99.90;;;;;;5015216;28;20042;-66
2024/01/07 03:53:36;;;;;;;12.20;8.68;;;2.70;99.90;;;;;;5022877;28;20038;-66
2024/01/07 03:56:08;;;;;;;13.20;8.80;;;2.70;99.90;;;;;;5018989;28;20514;-66
2024/01/07 03:58:40;;;;;;;13.57;8.40;;;2.70;99.90;;;;;;5014886;28;20046;-66
2024/01/07 04:01:16;;;;;;;11.73;8.80;;;2.70;99.90;;;;;;5024867;28;20052;-66
2024/01/07 04:03:48;;;;;;;13.20;8.13;;;2.70;99.90;;;;;;5019893;28;20034;-66
2024/01/07 04:06:20;;;;;;;14.70;9.38;;;2.70;99.90;;;;;;5012182;28;20407;-66
2024/01/07 04:08:52;;;;;;;14.07;9.07;;;2.70;99.90;;;;;;5023126;28;20620;-66
2024/01/07 04:11:19;;;;;;;14.20;9.75;;;2.70;99.90;;;;;;5014803;28;20038;-65
2024/01/07 04:13:51;;;;;;;17.70;10.88;;;2.70;99.90;;;;;;5016491;28;20045;-66
2024/01/07 04:16:22;;;;;;;12.88;9.80;;;2.70;99.90;;;;;;5017820;28;20049;-66
2024/01/07 04:18:54;;;;;;;13.98;9.30;;;2.70;99.90;;;;;;5015634;28;20426;-66
2024/01/07 04:21:21;;;;;;;14.85;9.48;;;2.70;99.90;;;;;;5017872;28;20034;-66
2024/01/07 04:23:53;;;;;;;15.48;9.82;;;2.70;99.90;;;;;;5019300;28;20056;-66
2024/01/07 04:26:20;;;;;;;16.35;10.70;;;2.70;99.90;;;;;;5019826;28;20061;-66
2024/01/07 04:28:47;;;;;;;14.75;10.15;;;2.70;99.90;;;;;;5016313;28;20033;-66
2024/01/07 04:31:14;;;;;;;14.65;10.15;;;2.70;99.90;;;;;;5015639;28;20132;-66
2024/01/07 04:33:45;;;;;;;15.55;10.25;;;2.70;99.90;;;;;;5037949;28;20414;-66
2024/01/07 04:36:17;;;;;;;15.35;10.75;;;2.80;99.90;;;;;;5019601;28;20049;-66
2024/01/07 04:38:49;;;;;;;15.38;10.98;;;2.70;99.90;;;;;;5023252;28;20046;-66
2024/01/07 04:41:21;;;;;;;15.32;10.43;;;2.80;99.90;;;;;;5019521;28;20049;-66
2024/01/07 04:43:52;;;;;;;14.73;10.40;;;2.80;99.90;;;;;;5014016;28;20038;-66
2024/01/07 04:46:24;;;;;;;15.95;11.75;;;2.80;99.90;;;;;;5022396;28;20042;-66
2024/01/07 04:48:56;;;;;;;15.70;10.38;;;2.80;99.90;;;;;;5022510;28;20052;-65
2024/01/07 04:51:28;;;;;;;15.27;10.63;;;2.80;99.90;;;;;;5019385;28;20041;-65
2024/01/07 04:54:00;;;;;;;16.85;11.90;;;2.80;99.90;;;;;;5023252;28;20147;-66
2024/01/07 04:56:32;;;;;;;16.30;11.23;;;2.80;99.90;;;;;;5036040;28;20501;-66
2024/01/07 04:59:04;;;;;;;17.30;11.82;;;2.80;99.90;;;;;;5013420;28;20132;-66
2024/01/07 05:01:36;;;;;;;15.38;10.93;;;2.80;99.90;;;;;;5010735;28;20046;-66
2024/01/07 05:04:08;;;;;;;16.25;11.15;;;2.80;99.90;;;;;;5017719;28;20050;-66
2024/01/07 05:06:35;;;;;;;15.50;10.88;;;2.80;99.90;;;;;;5011269;28;20034;-66
2024/01/07 05:09:07;;;;;;;16.35;12.15;;;2.80;99.90;;;;;;5029736;28;20591;-66
2024/01/07 05:11:41;;;;;;;20.25;11.30;;;2.80;99.90;;;;;;5035825;28;20033;-66
2024/01/07 05:14:13;;;;;;;61.30;38.00;;;2.80;99.90;;;;;;5033160;28;20050;-65
2024/01/07 05:16:45;;;;;;;99.93;53.10;;;2.80;99.90;;;;;;5019712;28;20112;-66
2024/01/07 05:19:17;;;;;;;30.45;20.98;;;2.80;99.90;;;;;;5023476;28;20061;-66
2024/01/07 05:21:50;;;;;;;20.75;15.40;;;2.80;99.90;;;;;;5022912;28;20054;-66
2024/01/07 05:24:22;;;;;;;20.50;15.82;;;2.80;99.90;;;;;;5020328;28;20477;-66
2024/01/07 05:26:54;;;;;;;19.10;12.93;;;2.80;99.90;;;;;;5030739;28;20060;-66
2024/01/07 05:29:26;;;;;;;21.40;14.73;;;2.80;99.90;;;;;;5021178;28;20104;-66
2024/01/07 05:32:00;;;;;;;20.30;12.32;;;2.80;99.90;;;;;;5014109;28;20421;-66
2024/01/07 05:34:32;;;;;;;18.63;12.90;;;2.80;99.90;;;;;;5015063;28;20067;-66
2024/01/07 05:37:04;;;;;;;21.73;12.40;;;2.80;99.90;;;;;;5025384;28;20041;-66
2024/01/07 05:39:35;;;;;;;17.35;12.13;;;2.80;99.90;;;;;;5028168;28;20045;-66
2024/01/07 05:42:07;;;;;;;19.95;11.88;;;2.80;99.90;;;;;;5021737;28;20689;-66
2024/01/07 05:44:40;;;;;;;18.92;12.52;;;2.80;99.90;;;;;;5020749;28;20061;-65
2024/01/07 05:47:12;;;;;;;18.23;11.90;;;2.70;99.90;;;;;;5020932;28;20506;-66
2024/01/07 05:49:44;;;;;;;22.08;14.23;;;2.70;99.90;;;;;;5033583;28;20299;-66
2024/01/07 05:52:10;;;;;;;19.23;12.88;;;2.70;99.90;;;;;;5026049;28;20045;-66
2024/01/07 05:54:42;;;;;;;17.52;12.57;;;2.70;99.90;;;;;;5019091;28;20057;-65
2024/01/07 05:57:14;;;;;;;17.20;11.57;;;2.70;99.90;;;;;;5020466;28;20052;-66
2024/01/07 05:59:46;;;;;;;19.40;13.20;;;2.70;99.90;;;;;;5015893;28;20088;-66
2024/01/07 06:02:18;;;;;;;19.20;13.52;;;2.70;99.90;;;;;;5017868;28;20141;-66
2024/01/07 06:04:44;;;;;;;19.67;12.80;;;2.70;99.90;;;;;;5022915;28;20033;-65
2024/01/07 06:07:16;;;;;;;18.77;13.13;;;2.70;99.90;;;;;;5020043;28;20518;-66
2024/01/07 06:09:48;;;;;;;24.90;14.48;;;2.70;99.90;;;;;;5021031;28;20044;-66
2024/01/07 06:12:20;;;;;;;20.33;13.13;;;2.70;99.90;;;;;;5035590;28;20046;-66
2024/01/07 06:14:52;;;;;;;24.50;14.43;;;2.70;99.90;;;;;;5025611;28;20518;-66
2024/01/07 06:17:24;;;;;;;20.52;13.57;;;2.60;99.90;;;;;;5024910;28;20041;-66
2024/01/07 06:19:56;;;;;;;37.00;20.60;;;2.70;99.90;;;;;;5025529;28;20060;-66
2024/01/07 06:22:28;;;;;;;23.40;14.57;;;2.70;99.90;;;;;;5018716;28;20053;-66
2024/01/07 06:25:00;;;;;;;53.10;35.38;;;2.60;99.90;;;;;;5020720;28;20056;-66
2024/01/07 06:27:31;;;;;;;26.83;18.35;;;2.60;99.90;;;;;;5018661;28;20055;-66
2024/01/07 06:30:05;;;;;;;26.75;14.85;;;2.60;99.90;;;;;;5018980;28;20041;-66
2024/01/07 06:32:36;;;;;;;23.45;13.93;;;2.70;99.90;;;;;;5025795;28;20034;-66
2024/01/07 06:35:08;;;;;;;24.30;14.98;;;2.70;99.90;;;;;;5023025;28;20049;-66
2024/01/07 06:37:40;;;;;;;21.00;13.20;;;2.70;99.90;;;;;;5021490;28;20417;-65
2024/01/07 06:40:12;;;;;;;21.10;14.57;;;2.70;99.90;;;;;;5017462;28;20072;-73
2024/01/07 06:42:44;;;;;;;22.38;14.05;;;2.70;99.90;;;;;;5016764;28;20053;-66
2024/01/07 06:45:17;;;;;;;27.35;18.42;;;2.70;99.90;;;;;;5024817;28;20056;-66
2024/01/07 06:47:49;;;;;;;29.47;19.30;;;2.70;99.90;;;;;;5019359;28;20046;-66
2024/01/07 06:50:21;;;;;;;31.80;22.92;;;2.70;99.90;;;;;;5014200;28;20042;-66
2024/01/07 06:52:52;;;;;;;30.52;22.50;;;2.70;99.90;;;;;;5017937;28;20523;-66
2024/01/07 06:55:24;;;;;;;26.83;20.92;;;2.70;99.90;;;;;;5033572;28;20172;-66
2024/01/07 06:57:56;;;;;;;40.47;22.60;;;2.70;99.90;;;;;;5025023;28;20050;-66
2024/01/07 07:00:28;;;;;;;108.47;50.30;;;2.70;99.90;;;;;;5020413;28;20898;-66
2024/01/07 07:03:00;;;;;;;46.97;26.88;;;2.70;99.90;;;;;;5020306;28;20042;-65
2024/01/07 07:05:32;;;;;;;42.78;26.27;;;2.70;99.90;;;;;;5018592;28;20104;-66
2024/01/07 07:07:58;;;;;;;35.67;20.70;;;2.70;99.90;;;;;;5024439;28;20038;-66
2024/01/07 07:10:26;;;;;;;50.72;29.55;;;2.70;99.90;;;;;;5014647;28;20048;-66
2024/01/07 07:12:58;;;;;;;43.58;24.88;;;2.70;99.90;;;;;;5013012;28;20050;-65
2024/01/07 07:15:29;;;;;;;43.75;24.65;;;2.70;99.90;;;;;;5011427;28;20038;-66
2024/01/07 07:18:01;;;;;;;31.02;19.17;;;2.70;99.90;;;;;;5012346;28;20049;-65
2024/01/07 07:20:33;;;;;;;23.80;15.77;;;2.70;99.90;;;;;;5027202;28;20046;-66
2024/01/07 07:23:00;;;;;;;26.13;16.10;;;2.70;99.90;;;;;;5021259;28;20050;-65
2024/01/07 07:25:32;;;;;;;26.02;17.50;;;2.80;99.90;;;;;;5019571;28;20041;-66
2024/01/07 07:28:04;;;;;;;25.13;17.35;;;2.80;99.90;;;;;;5022881;28;20104;-70
2024/01/07 07:30:36;;;;;;;22.85;15.68;;;2.70;99.90;;;;;;5019413;28;20046;-66
2024/01/07 07:33:08;;;;;;;25.02;16.73;;;2.70;99.90;;;;;;5025158;28;20064;-66
2024/01/07 07:35:37;;;;;;;20.02;14.10;;;2.70;99.90;;;;;;5011951;28;20033;-66
2024/01/07 07:38:09;;;;;;;29.33;17.77;;;2.70;99.90;;;;;;5019975;28;20661;-66
2024/01/07 07:40:41;;;;;;;24.15;15.18;;;2.70;99.90;;;;;;5029630;28;20041;-66
2024/01/07 07:43:13;;;;;;;24.75;14.85;;;2.70;99.90;;;;;;5024699;28;20450;-66
2024/01/07 07:45:45;;;;;;;24.80;14.20;;;2.70;99.90;;;;;;5030036;28;20041;-66
2024/01/07 07:48:18;;;;;;;22.50;14.65;;;2.70;99.90;;;;;;5021990;28;20184;-66
2024/01/07 07:50:44;;;;;;;23.02;15.35;;;2.70;99.90;;;;;;5024076;28;20040;-66
2024/01/07 07:53:16;;;;;;;22.42;14.10;;;2.70;99.90;;;;;;5024436;28;20429;-66
2024/01/07 07:55:49;;;;;;;24.48;15.30;;;2.70;99.90;;;;;;5027607;28;20051;-66
2024/01/07 07:58:21;;;;;;;22.40;15.43;;;2.70;99.90;;;;;;5040080;28;20107;-67
2024/01/07 08:00:53;;;;;;;19.95;13.15;;;2.70;99.90;;;;;;5025559;28;20059;-67
2024/01/07 08:03:25;;;;;;;21.55;14.23;;;2.70;99.90;;;;;;5027881;28;20046;-66
2024/01/07 08:05:57;;;;;;;19.45;12.70;;;2.60;99.90;;;;;;5004783;28;20125;-66
2024/01/07 08:08:23;;;;;;;22.98;14.30;;;2.60;99.90;;;;;;5023385;28;20037;-66
2024/01/07 08:10:55;;;;;;;25.30;14.77;;;2.60;99.90;;;;;;5025958;28;20041;-67
2024/01/07 08:13:27;;;;;;;55.55;24.25;;;2.60;99.90;;;;;;5040987;28;20120;-66
2024/01/07 08:15:59;;;;;;;38.28;19.23;;;2.60;99.90;;;;;;5024292;28;20045;-66
2024/01/07 08:18:31;;;;;;;26.65;16.65;;;2.60;99.90;;;;;;5050384;28;20049;-66
2024/01/07 08:21:03;;;;;;;23.55;14.88;;;2.60;99.90;;;;;;5009241;28;20072;-66
2024/01/07 08:23:30;;;;;;;23.00;15.00;;;2.60;99.90;;;;;;5042575;28;20041;-66
2024/01/07 08:26:02;;;;;;;51.38;26.23;;;2.60;99.90;;;;;;5023310;28;20416;-66
2024/01/07 08:28:34;;;;;;;42.08;22.67;;;2.70;99.90;;;;;;5024327;28;20124;-68
2024/01/07 08:31:07;;;;;;;88.03;39.03;;;2.70;99.90;;;;;;5021819;28;20065;-65
2024/01/07 08:33:34;;;;;;;69.47;30.23;;;2.60;99.90;;;;;;5020755;28;20045;-65
2024/01/07 08:36:06;;;;;;;42.13;21.50;;;2.60;99.90;;;;;;5022478;28;20041;-65
2024/01/07 08:38:37;;;;;;;22.52;14.30;;;2.60;99.90;;;;;;5019789;28;20049;-65
2024/01/07 08:41:09;;;;;;;23.00;12.95;;;2.60;99.90;;;;;;5006955;28;20054;-66
2024/01/07 08:43:41;;;;;;;23.35;13.65;;;2.50;99.90;;;;;;5023787;28;20041;-65
2024/01/07 08:46:13;;;;;;;23.42;14.38;;;2.60;99.90;;;;;;5019137;28;20053;-65
2024/01/07 08:48:40;;;;;;;23.10;14.23;;;2.50;99.90;;;;;;5020451;28;20056;-65
2024/01/07 08:51:12;;;;;;;21.17;13.70;;;2.60;99.90;;;;;;5023217;28;20426;-65
2024/01/07 08:53:44;;;;;;;18.88;12.30;;;2.60;99.90;;;;;;5025244;28;20052;-65
2024/01/07 08:56:12;;;;;;;23.38;13.65;;;2.50;99.90;;;;;;5025613;28;20039;-65
2024/01/07 08:58:44;;;;;;;16.73;9.98;;;2.50;99.90;;;;;;5021763;28;20045;-65
2024/01/07 09:01:10;;;;;;;22.25;14.90;;;2.50;99.90;;;;;;5015276;28;20419;-64
2024/01/07 09:03:42;;;;;;;19.77;12.45;;;2.50;99.90;;;;;;5031036;28;20501;-65
2024/01/07 09:06:14;;;;;;;23.52;12.98;;;2.50;99.90;;;;;;5029395;28;20045;-65
2024/01/07 09:08:42;;;;;;;22.05;14.25;;;2.50;99.90;;;;;;5022828;28;20033;-65
2024/01/07 09:11:16;;;;;;;25.38;14.48;;;2.50;99.90;;;;;;5029564;28;20044;-65
2024/01/07 09:13:51;;;;;;;19.10;12.02;;;2.50;99.90;;;;;;5027695;28;20045;-65
2024/01/07 09:16:23;;;;;;;20.60;13.48;;;2.50;99.90;;;;;;5028328;28;20045;-65
2024/01/07 09:18:55;;;;;;;22.73;13.40;;;2.50;99.90;;;;;;5025822;28;20069;-65
2024/01/07 09:21:27;;;;;;;18.75;12.13;;;2.50;99.90;;;;;;5028603;28;20045;-65
2024/01/07 09:23:59;;;;;;;20.00;13.07;;;2.50;99.90;;;;;;5028535;28;20528;-65
2024/01/07 09:26:31;;;;;;;19.35;12.60;;;2.50;99.90;;;;;;5014667;28;20053;-65
2024/01/07 09:29:03;;;;;;;19.70;12.27;;;2.40;99.90;;;;;;5025773;28;20045;-65
2024/01/07 09:31:34;;;;;;;17.65;12.05;;;2.40;99.90;;;;;;5028143;28;20417;-64
2024/01/07 09:34:06;;;;;;;20.05;11.68;;;2.40;99.90;;;;;;5031384;28;20048;-65
2024/01/07 09:36:35;;;;;;;20.13;12.13;;;2.40;99.90;;;;;;5032927;28;20045;-65
2024/01/07 09:39:07;;;;;;;21.23;11.85;;;2.40;99.90;;;;;;5029099;28;20388;-65
2024/01/07 09:41:39;;;;;;;19.38;12.18;;;2.40;99.90;;;;;;5024785;28;20806;-65
2024/01/07 09:44:07;;;;;;;18.73;11.63;;;2.40;99.90;;;;;;5025170;28;20044;-65
2024/01/07 09:46:41;;;;;;;22.38;12.48;;;2.40;99.90;;;;;;5029782;28;20041;-65
2024/01/07 09:49:13;;;;;;;22.00;11.75;;;2.40;99.90;;;;;;5019620;28;20470;-65
2024/01/07 09:51:48;;;;;;;17.80;11.25;;;2.30;99.90;;;;;;5021544;28;20042;-65
2024/01/07 09:54:22;;;;;;;18.55;10.43;;;2.30;99.90;;;;;;5016146;28;20042;-65
2024/01/07 09:57:02;;;;;;;22.67;12.80;;;2.30;99.90;;;;;;5024362;28;20691;-65
2024/01/07 09:59:36;;;;;;;24.08;13.25;;;2.30;99.90;;;;;;5025703;28;20046;-65
2024/01/07 10:02:09;;;;;;;22.42;13.18;;;2.20;99.90;;;;;;5042085;28;20124;-65
2024/01/07 10:04:36;;;;;;;23.40;13.15;;;2.20;99.90;;;;;;5029386;28;20068;-65
2024/01/07 10:07:03;;;;;;;25.00;14.88;;;2.20;99.90;;;;;;5022064;28;20041;-65
2024/01/07 10:09:35;;;;;;;23.20;13.68;;;2.20;99.90;;;;;;5023695;28;20445;-65
2024/01/07 10:12:08;;;;;;;21.00;12.40;;;2.20;99.90;;;;;;5040525;28;20053;-65
2024/01/07 10:14:40;;;;;;;29.38;17.70;;;2.20;99.90;;;;;;5014048;28;20069;-66
2024/01/07 10:17:17;;;;;;;40.20;23.70;;;2.20;99.90;;;;;;5032764;28;20041;-65
2024/01/07 10:19:49;;;;;;;26.77;16.52;;;2.20;99.90;;;;;;5037029;28;20042;-65
2024/01/07 10:22:16;;;;;;;32.40;19.05;;;2.20;99.90;;;;;;5044390;28;20069;-65
2024/01/07 10:24:43;;;;;;;24.08;14.25;;;2.20;99.90;;;;;;5024448;28;20044;-66
2024/01/07 10:27:10;;;;;;;22.98;15.63;;;2.20;99.90;;;;;;5019217;28;20030;-65
2024/01/07 10:29:37;;;;;;;20.60;13.80;;;2.20;99.90;;;;;;5023468;28;20465;-65
2024/01/07 10:32:09;;;;;;;22.75;13.18;;;2.20;99.90;;;;;;5030508;28;20850;-65
2024/01/07 10:34:36;;;;;;;20.40;12.43;;;2.10;99.90;;;;;;5024340;28;20038;-65
2024/01/07 10:37:10;;;;;;;21.35;11.27;;;2.10;99.90;;;;;;5024039;28;20038;-65
2024/01/07 10:39:37;;;;;;;15.90;10.25;;;2.10;99.90;;;;;;5025108;28;20053;-65
2024/01/07 10:42:05;;;;;;;20.75;13.27;;;2.10;99.90;;;;;;5046742;28;20069;-65
2024/01/07 10:44:38;;;;;;;27.97;17.53;;;2.10;99.90;;;;;;5023253;28;20037;-65
2024/01/07 10:47:12;;;;;;;14.07;8.70;;;2.10;99.90;;;;;;5025358;28;20029;-65
2024/01/07 10:49:47;;;;;;;20.23;13.05;;;2.10;99.90;;;;;;5020472;28;20533;-65
2024/01/07 10:52:20;;;;;;;20.40;11.95;;;2.00;99.90;;;;;;5029091;28;20071;-65
2024/01/07 10:54:53;;;;;;;20.70;12.68;;;2.00;99.90;;;;;;5027947;28;20597;-65
2024/01/07 10:57:54;;;;;;;21.90;13.20;;;1.90;99.90;;;;;;5025849;28;20868;-65
2024/01/07 11:00:25;;;;;;;17.67;11.00;;;1.90;99.90;;;;;;5012144;28;20049;-65
2024/01/07 11:03:18;;;;;;;18.42;12.85;;;1.90;99.90;;;;;;5026623;28;20135;-65
2024/01/07 11:05:56;;;;;;;17.27;10.93;;;1.90;99.90;;;;;;5008743;28;20128;-65
2024/01/07 11:08:54;;;;;;;16.45;10.73;;;1.80;99.90;;;;;;5022976;28;20402;-65
2024/01/07 11:11:31;;;;;;;30.58;15.05;;;1.80;99.90;;;;;;5023083;28;20041;-65
2024/01/07 11:14:03;;;;;;;24.40;13.02;;;1.80;99.90;;;;;;5024905;28;20112;-65
2024/01/07 11:16:42;;;;;;;32.03;15.10;;;1.80;99.90;;;;;;5020908;28;20041;-65
2024/01/07 11:19:14;;;;;;;25.52;14.30;;;1.80;99.90;;;;;;5024276;28;20497;-65
2024/01/07 11:21:41;;;;;;;36.75;16.88;;;1.80;99.90;;;;;;5040042;28;20133;-65
2024/01/07 11:24:42;;;;;;;26.77;13.13;;;1.80;99.90;;;;;;5024960;28;20835;-65
2024/01/07 11:27:16;;;;;;;34.17;16.70;;;1.80;99.90;;;;;;5024514;28;20406;-64
2024/01/07 11:30:06;;;;;;;21.25;10.88;;;1.80;99.90;;;;;;5027726;28;20033;-65
2024/01/07 11:32:39;;;;;;;26.30;12.35;;;1.70;99.90;;;;;;5028854;28;20025;-65
2024/01/07 11:35:12;;;;;;;24.27;11.85;;;1.70;99.90;;;;;;5026177;28;20052;-65
2024/01/07 11:37:46;;;;;;;29.48;13.65;;;1.70;99.90;;;;;;5022671;28;20045;-65
2024/01/07 11:40:18;;;;;;;;;;;1.70;99.90;;;;;;5022811;28;20045;-65
2024/01/07 11:42:51;;;;;;;29.80;13.95;;;1.70;99.90;;;;;;5022992;28;20018;-65
2024/01/07 11:45:23;;;;;;;25.35;12.35;;;1.70;99.90;;;;;;5026736;28;20048;-65
2024/01/07 11:47:55;;;;;;;28.90;15.43;;;1.70;99.90;;;;;;5037282;28;20049;-65
2024/01/07 11:50:28;;;;;;;34.67;18.20;;;1.60;99.90;;;;;;5024290;28;20564;-64
2024/01/07 11:53:00;;;;;;;20.92;10.68;;;1.60;99.90;;;;;;5024404;28;20034;-65
2024/01/07 11:55:34;;;;;;;30.23;14.02;;;1.60;99.90;;;;;;5023782;28;20045;-65
2024/01/07 11:58:06;;;;;;;16.70;9.60;;;1.60;99.90;;;;;;5020775;28;20470;-65
2024/01/07 12:00:38;;;;;;;45.88;20.95;;;1.60;99.90;;;;;;5024735;28;20041;-65
2024/01/07 12:03:11;;;;;;;29.45;14.50;;;1.60;99.90;;;;;;5017798;28;20096;-65
2024/01/07 12:05:44;;;;;;;23.50;12.93;;;1.60;99.90;;;;;;5019352;28;20060;-65
2024/01/07 12:08:16;;;;;;;25.40;14.33;;;1.60;99.90;;;;;;5024641;28;20053;-65
2024/01/07 12:10:49;;;;;;;22.63;12.80;;;1.60;99.90;;;;;;5022983;28;20512;-65
2024/01/07 12:13:21;;;;;;;21.98;12.65;;;1.60;99.90;;;;;;5022706;28;20045;-65
2024/01/07 12:15:54;;;;;;;25.90;12.98;;;1.60;99.90;;;;;;5026113;28;20039;-65
2024/01/07 12:18:26;;;;;;;22.88;12.55;;;1.60;99.90;;;;;;5021484;28;20089;-65
2024/01/07 12:20:59;;;;;;;27.58;14.20;;;1.50;99.90;;;;;;5023211;28;20045;-65
2024/01/07 12:23:38;;;;;;;19.95;12.45;;;1.50;99.90;;;;;;5017344;28;20050;-65
2024/01/07 12:26:11;;;;;;;24.75;12.57;;;1.70;99.90;;;;;;5019929;28;20041;-66
2024/01/07 12:28:43;;;;;;;27.75;13.73;;;1.70;99.90;;;;;;5031691;28;20052;-66
2024/01/07 12:31:10;;;;;;;22.77;13.02;;;1.60;99.90;;;;;;5018405;28;20193;-65
2024/01/07 12:33:42;;;;;;;23.80;12.75;;;1.60;99.90;;;;;;5021515;28;20041;-65
2024/01/07 12:36:14;;;;;;;19.58;11.88;;;1.60;99.90;;;;;;5024359;28;20061;-65
2024/01/07 12:38:46;;;;;;;27.17;15.27;;;1.60;99.90;;;;;;5024933;28;20045;-65
2024/01/07 12:41:13;;;;;;;16.48;9.88;;;1.60;99.90;;;;;;5023447;28;20047;-65
2024/01/07 12:43:45;;;;;;;21.95;12.15;;;1.60;99.90;;;;;;5020593;28;20038;-65
2024/01/07 12:46:17;;;;;;;22.95;12.63;;;1.50;99.90;;;;;;5021016;28;20046;-66
2024/01/07 12:48:44;;;;;;;21.60;12.05;;;1.50;99.90;;;;;;5021133;28;20093;-65
2024/01/07 12:51:16;;;;;;;22.13;13.15;;;1.50;99.90;;;;;;5023063;28;20041;-65
2024/01/07 12:53:47;;;;;;;21.55;11.80;;;1.40;99.90;;;;;;5024046;28;20038;-65
2024/01/07 12:56:19;;;;;;;24.20;12.60;;;1.40;99.90;;;;;;5025915;28;20152;-66
2024/01/07 12:58:51;;;;;;;29.83;15.40;;;1.40;99.90;;;;;;5022730;28;20101;-66
2024/01/07 13:01:18;;;;;;;25.02;14.63;;;1.40;99.90;;;;;;5023154;28;20050;-65